Aviation Digital Data Service (ADDS)

Output produced by METARs form (0322 UTC 04 July 2015)
found at http://www.aviationweather.gov/adds/metars/
 
KMDT 040256Z 00000KT 5SM FEW085 OVC250 22/18 A2993 RMK AO2 SLP135 T02170178 53002
KMDT 040156Z 00000KT 8SM FEW080 OVC250 22/17 A2993 RMK AO2 SLP132 T02220172
KMDT 040056Z 00000KT 8SM SCT080 OVC250 22/18 A2992 RMK AO2 SLP132 T02220183
KMDT 032356Z 13004KT 8SM SCT085 OVC230 23/18 A2993 RMK AO2 SLP133 T02330178 10272 20233 56004
KMDT 032256Z 14003KT 8SM FEW080 OVC230 24/18 A2993 RMK AO2 SLP133 T02440178
KMDT 032156Z 13003KT 9SM FEW045 SCT080 OVC220 25/18 A2993 RMK AO2 SLP135 T02500183
KMDT 032056Z 13005KT 9SM SCT045 SCT080 OVC250 26/18 A2994 RMK AO2 SLP137 T02560178 56011
KMDT 031956Z 14006KT 10SM SCT050 OVC250 26/18 A2995 RMK AO2 SLP140 T02610183
KMDT 031856Z 12005KT 10SM SCT050 BKN250 27/17 A2996 RMK AO2 SLP143 T02670172
KMDT 031756Z 14005KT 10SM SCT040 BKN250 27/17 A2997 RMK AO2 SLP148 T02670167 10267 20189 58009
KMDT 031656Z 00000KT 10SM SCT040 BKN250 26/16 A2998 RMK AO2 SLP153 T02610161
KMDT 031556Z 00000KT 10SM SCT250 25/17 A2999 RMK AO2 SLP155 T02500167
KMDT 031456Z 16004KT 10SM CLR 24/16 A3000 RMK AO2 SLP158 T02390161 52006
KMDT 031356Z 21004KT 10SM CLR 22/16 A2999 RMK AO2 SLP155 T02220156
KMDT 031256Z 00000KT 10SM BKN250 21/15 A2999 RMK AO2 SLP154 T02060150
KMDT 031156Z 00000KT 9SM CLR 19/15 A2998 RMK AO2 SLP151 T01890150 10189 20167 53014
KMDT 031056Z 00000KT 7SM CLR 18/15 A2996 RMK AO2 SLP145 T01780150
KMDT 030956Z 31003KT 7SM FEW090 FEW250 17/16 A2995 RMK AO2 SLP139 T01720156
KMDT 030856Z 33003KT 7SM FEW090 FEW250 17/16 A2994 RMK AO2 SLP137 T01720156 53008
KMDT 030756Z 30004KT 7SM FEW090 FEW250 17/16 A2993 RMK AO2 SLP135 T01720161
KMDT 030656Z 00000KT 8SM FEW090 FEW250 17/16 A2992 RMK AO2 SLP130 T01720161
KMDT 030556Z 00000KT 8SM FEW080 18/16 A2991 RMK AO2 SLP129 T01830161 10228 20172 51003
KMDT 030456Z 00000KT 9SM FEW080 18/16 A2991 RMK AO2 SLP128 T01780161 402500172
KMDT 030356Z 00000KT 10SM FEW080 19/17 A2991 RMK AO2 SLP128 T01890172
KMDT 030256Z 00000KT 10SM FEW075 FEW200 21/18 A2991 RMK AO2 SLP126 T02060178 51011
KMDT 030156Z 29003KT 9SM FEW200 21/17 A2990 RMK AO2 SLP124 T02060172
KMDT 030056Z 00000KT 9SM FEW090 SCT200 BKN250 22/18 A2988 RMK AO2 SLP118 T02170178
KMDT 022356Z 00000KT 9SM FEW090 BKN200 OVC250 23/18 A2987 RMK AO2 SLP115 T02280178 10250 20222 56004
KMDT 022256Z VRB03KT 9SM SCT085 BKN180 OVC250 23/18 A2987 RMK AO2 SLP115 T02280183
KMDT 022156Z 00000KT 9SM BKN180 OVC250 23/18 A2987 RMK AO2 SLP115 T02330178
KMDT 022056Z 20004KT 9SM FEW080 BKN150 OVC250 23/18 A2989 RMK AO2 SLP119 T02330178 57004
KMDT 021956Z 15004KT 9SM FEW075 SCT100 OVC250 23/18 A2989 RMK AO2 SLP120 T02330183
KMDT 021856Z 15003KT 10SM SCT050 BKN100 OVC250 24/18 A2989 RMK AO2 SLP122 T02390178
KMDT 021756Z 00000KT 10SM SCT050 BKN100 25/17 A2990 RMK AO2 SLP123 T02500167 10250 20194 58003
KMDT 021656Z 00000KT 10SM FEW100 24/16 A2990 RMK AO2 SLP125 T02440161
KMDT 021556Z 19003KT 10SM FEW050 FEW065 24/17 A2990 RMK AO2 SLP125 T02440167